createdAt,value
2024-04-23T00:00:44.384Z,482.00
2024-04-23T00:01:44.493Z,480.00
2024-04-23T00:02:44.497Z,477.00
2024-04-23T00:03:44.624Z,473.00
2024-04-23T00:04:44.761Z,476.00
2024-04-23T00:05:44.682Z,479.00
2024-04-23T00:06:44.738Z,479.00
2024-04-23T00:07:44.844Z,479.00
2024-04-23T00:08:44.886Z,477.00
2024-04-23T00:09:44.994Z,476.00
2024-04-23T00:10:45.131Z,476.00
2024-04-23T00:11:45.124Z,478.00
2024-04-23T00:13:08.774Z,479.00
2024-04-23T00:13:45.431Z,479.00
2024-04-23T00:14:45.490Z,479.00
2024-04-23T00:15:45.504Z,479.00
2024-04-23T00:16:45.623Z,479.00
2024-04-23T00:17:45.685Z,481.00
2024-04-23T00:18:45.750Z,484.00
2024-04-23T00:19:45.825Z,488.00
2024-04-23T00:20:45.797Z,486.00
2024-04-23T00:21:45.859Z,485.00
2024-04-23T00:22:45.996Z,485.00
2024-04-23T00:23:45.984Z,484.00
2024-04-23T00:24:46.050Z,481.00
2024-04-23T00:26:07.157Z,482.00
2024-04-23T00:26:46.190Z,482.00
2024-04-23T00:27:46.123Z,479.00
2024-04-23T00:28:46.148Z,480.00
2024-04-23T00:29:46.121Z,478.00
2024-04-23T00:30:46.126Z,477.00
2024-04-23T00:31:46.137Z,479.00
2024-04-23T00:32:46.280Z,481.00
2024-04-23T00:33:46.132Z,482.00
2024-04-23T00:34:46.202Z,483.00
2024-04-23T00:35:46.139Z,483.00
2024-04-23T00:36:46.144Z,482.00
2024-04-23T00:37:46.169Z,483.00
2024-04-23T00:38:46.142Z,483.00
2024-04-23T00:39:46.160Z,484.00
2024-04-23T00:40:46.167Z,486.00
2024-04-23T00:41:46.141Z,488.00
2024-04-23T00:42:46.155Z,487.00
2024-04-23T00:43:46.172Z,488.00
2024-04-23T00:44:46.173Z,488.00
2024-04-23T00:45:46.149Z,487.00
2024-04-23T00:46:46.175Z,486.00
2024-04-23T00:47:46.214Z,484.00
2024-04-23T00:48:46.157Z,483.00
2024-04-23T00:49:46.208Z,480.00
2024-04-23T00:50:46.183Z,477.00
2024-04-23T00:51:46.176Z,475.00
2024-04-23T00:52:46.237Z,475.00
2024-04-23T00:53:46.225Z,473.00
2024-04-23T00:54:46.200Z,475.00
2024-04-23T00:55:46.204Z,475.00
2024-04-23T00:56:46.193Z,475.00
2024-04-23T00:57:46.195Z,474.00
2024-04-23T00:58:46.268Z,475.00
2024-04-23T00:59:46.216Z,475.00
2024-04-23T01:00:46.198Z,473.00
2024-04-23T01:01:46.312Z,473.00
2024-04-23T01:02:46.226Z,476.00
2024-04-23T01:03:46.262Z,476.00
2024-04-23T01:04:46.377Z,476.00
2024-04-23T01:05:46.370Z,477.00
2024-04-23T01:06:46.426Z,477.00
2024-04-23T01:07:46.508Z,480.00
2024-04-23T01:08:46.553Z,481.00
2024-04-23T01:09:46.626Z,480.00
2024-04-23T01:10:46.718Z,482.00
2024-04-23T01:11:46.932Z,481.00
2024-04-23T01:12:46.802Z,482.00
2024-04-23T01:14:46.877Z,483.00
2024-04-23T01:15:46.885Z,482.00
2024-04-23T01:16:46.955Z,482.00
2024-04-23T01:17:46.966Z,482.00
2024-04-23T01:18:46.902Z,479.00
2024-04-23T01:19:46.935Z,481.00
2024-04-23T01:20:46.929Z,481.00
2024-04-23T01:21:46.912Z,481.00
2024-04-23T01:22:46.943Z,479.00
2024-04-23T01:23:46.941Z,479.00
2024-04-23T01:24:46.938Z,477.00
2024-04-23T01:25:47.038Z,477.00
2024-04-23T01:26:47.028Z,477.00
2024-04-23T01:27:46.960Z,476.00
2024-04-23T01:28:47.036Z,476.00
2024-04-23T01:29:46.996Z,474.00
2024-04-23T01:30:46.988Z,471.00
2024-04-23T01:31:47.052Z,470.00
2024-04-23T01:32:47.039Z,470.00
2024-04-23T01:33:46.997Z,469.00
2024-04-23T01:34:47.023Z,474.00
2024-04-23T01:35:46.983Z,475.00
2024-04-23T01:36:46.976Z,475.00
2024-04-23T01:37:47.043Z,474.00
2024-04-23T01:38:47.075Z,473.00
2024-04-23T01:39:47.138Z,474.00
2024-04-23T01:40:47.269Z,477.00
2024-04-23T01:41:47.141Z,478.00
2024-04-23T01:42:47.155Z,477.00
2024-04-23T01:43:47.179Z,476.00
2024-04-23T01:44:47.147Z,473.00
2024-04-23T01:45:47.156Z,474.00
2024-04-23T01:46:47.213Z,475.00
2024-04-23T01:47:47.246Z,476.00
2024-04-23T01:48:47.163Z,477.00
2024-04-23T01:49:47.267Z,475.00
2024-04-23T01:50:47.283Z,474.00
2024-04-23T01:51:47.352Z,473.00
2024-04-23T01:52:47.447Z,474.00
2024-04-23T01:53:47.496Z,474.00
2024-04-23T01:54:47.564Z,476.00
2024-04-23T01:55:47.699Z,475.00
2024-04-23T01:56:47.716Z,475.00
2024-04-23T01:57:47.788Z,474.00
2024-04-23T01:58:47.925Z,475.00
2024-04-23T01:59:47.939Z,475.00
2024-04-23T02:00:48.021Z,477.00
2024-04-23T02:01:48.120Z,476.00
2024-04-23T02:02:48.255Z,477.00
2024-04-23T02:03:48.267Z,479.00
2024-04-23T02:04:48.333Z,479.00
2024-04-23T02:05:48.377Z,477.00
2024-04-23T02:06:48.437Z,476.00
2024-04-23T02:07:48.555Z,478.00
2024-04-23T02:08:48.591Z,477.00
2024-04-23T02:09:48.648Z,476.00
2024-04-23T02:10:48.809Z,477.00
2024-04-23T02:11:48.839Z,476.00
2024-04-23T02:12:48.864Z,475.00
2024-04-23T02:13:48.968Z,476.00
2024-04-23T02:14:48.989Z,477.00
2024-04-23T02:15:49.071Z,476.00
2024-04-23T02:16:49.161Z,477.00
2024-04-23T02:17:49.383Z,479.00
2024-04-23T02:18:49.285Z,480.00
2024-04-23T02:19:49.326Z,482.00
2024-04-23T02:20:49.405Z,481.00
2024-04-23T02:21:49.463Z,482.00
2024-04-23T02:22:49.571Z,484.00
2024-04-23T02:23:49.596Z,483.00
2024-04-23T02:24:49.666Z,483.00
2024-04-23T02:25:49.770Z,480.00
2024-04-23T02:26:49.830Z,480.00
2024-04-23T02:27:49.936Z,481.00
2024-04-23T02:28:49.970Z,481.00
2024-04-23T02:29:50.062Z,479.00
2024-04-23T02:30:50.116Z,476.00
2024-04-23T02:31:50.252Z,475.00
2024-04-23T02:32:50.378Z,473.00
2024-04-23T02:33:50.322Z,474.00
2024-04-23T02:34:50.411Z,474.00
2024-04-23T02:35:50.470Z,475.00
2024-04-23T02:36:50.528Z,474.00
2024-04-23T02:37:50.692Z,476.00
2024-04-23T02:38:50.703Z,476.00
2024-04-23T02:39:50.753Z,477.00
2024-04-23T02:40:50.850Z,478.00
2024-04-23T02:41:50.907Z,479.00
2024-04-23T02:42:50.961Z,480.00
2024-04-23T02:43:51.045Z,482.00
2024-04-23T02:44:51.111Z,483.00
2024-04-23T02:45:51.188Z,481.00
2024-04-23T02:46:51.208Z,480.00
2024-04-23T02:47:51.244Z,479.00
2024-04-23T02:48:51.185Z,479.00
2024-04-23T02:49:51.200Z,479.00
2024-04-23T02:50:51.199Z,477.00
2024-04-23T02:51:51.181Z,477.00
2024-04-23T02:52:51.235Z,475.00
2024-04-23T02:53:51.176Z,477.00
2024-04-23T02:54:51.172Z,478.00
2024-04-23T02:55:51.258Z,478.00
2024-04-23T02:56:51.179Z,480.00
2024-04-23T02:57:51.169Z,482.00
2024-04-23T02:58:51.165Z,481.00
2024-04-23T02:59:51.162Z,484.00
2024-04-23T03:00:51.201Z,483.00
2024-04-23T03:01:51.233Z,481.00
2024-04-23T03:02:51.346Z,478.00
2024-04-23T03:03:51.201Z,478.00
2024-04-23T03:04:51.273Z,475.00
2024-04-23T03:05:51.314Z,474.00
2024-04-23T03:06:51.366Z,472.00
2024-04-23T03:07:51.479Z,471.00
2024-04-23T03:08:51.496Z,471.00
2024-04-23T03:09:51.523Z,470.00
2024-04-23T03:10:51.709Z,471.00
2024-04-23T03:11:51.699Z,472.00
2024-04-23T03:12:51.699Z,471.00
2024-04-23T03:13:51.814Z,470.00
2024-04-23T03:14:51.811Z,472.00
2024-04-23T03:15:51.871Z,473.00
2024-04-23T03:16:51.995Z,473.00
2024-04-23T03:17:52.034Z,475.00
2024-04-23T03:18:51.968Z,474.00
2024-04-23T03:19:52.029Z,471.00
2024-04-23T03:20:51.961Z,470.00
2024-04-23T03:21:51.961Z,470.00
2024-04-23T03:22:51.992Z,470.00
2024-04-23T03:23:51.982Z,468.00
2024-04-23T03:24:51.980Z,468.00
2024-04-23T03:25:52.020Z,472.00
2024-04-23T03:26:52.033Z,473.00
2024-04-23T03:27:51.981Z,474.00
2024-04-23T03:28:52.070Z,476.00
2024-04-23T03:29:51.992Z,477.00
2024-04-23T03:30:52.028Z,478.00
2024-04-23T03:31:52.066Z,480.00
2024-04-23T03:32:52.204Z,479.00
2024-04-23T03:33:52.026Z,479.00
2024-04-23T03:34:52.091Z,477.00
2024-04-23T03:35:52.056Z,477.00
2024-04-23T03:36:52.048Z,476.00
2024-04-23T03:37:52.075Z,476.00
2024-04-23T03:38:52.045Z,476.00
2024-04-23T03:39:52.059Z,475.00
2024-04-23T03:40:52.090Z,474.00
2024-04-23T03:41:52.083Z,471.00
2024-04-23T03:42:52.092Z,471.00
2024-04-23T03:43:52.120Z,472.00
2024-04-23T03:44:52.153Z,473.00
2024-04-23T03:45:52.194Z,475.00
2024-04-23T03:46:52.254Z,476.00
2024-04-23T03:47:52.335Z,477.00
2024-04-23T03:48:52.335Z,476.00
2024-04-23T03:49:52.416Z,477.00
2024-04-23T03:50:52.396Z,478.00
2024-04-23T03:51:52.434Z,481.00
2024-04-23T03:52:52.505Z,483.00
2024-04-23T03:53:52.501Z,485.00
2024-04-23T03:54:52.548Z,486.00
2024-04-23T03:55:52.588Z,485.00
2024-04-23T03:56:52.587Z,482.00
2024-04-23T03:57:52.617Z,481.00
2024-04-23T03:58:52.653Z,479.00
2024-04-23T03:59:52.678Z,481.00
2024-04-23T04:00:52.767Z,480.00
2024-04-23T04:01:52.787Z,478.00
2024-04-23T04:02:52.779Z,478.00
2024-04-23T04:03:52.809Z,476.00
2024-04-23T04:04:52.823Z,476.00
2024-04-23T04:05:52.848Z,476.00
2024-04-23T04:06:52.865Z,476.00
2024-04-23T04:07:52.889Z,475.00
2024-04-23T04:08:56.407Z,473.00
2024-04-23T04:09:52.913Z,474.00
2024-04-23T04:10:52.961Z,477.00
2024-04-23T04:11:52.977Z,475.00
2024-04-23T04:13:03.286Z,475.00
2024-04-23T04:13:54.020Z,476.00
2024-04-23T04:14:52.994Z,475.00
2024-04-23T04:15:53.027Z,477.00
2024-04-23T04:16:53.107Z,479.00
2024-04-23T04:17:53.176Z,478.00
2024-04-23T04:18:53.209Z,477.00
2024-04-23T04:19:53.130Z,477.00
2024-04-23T04:20:53.135Z,477.00
2024-04-23T04:21:53.128Z,477.00
2024-04-23T04:22:53.187Z,479.00
2024-04-23T04:23:53.170Z,481.00
2024-04-23T04:24:53.213Z,480.00
2024-04-23T04:25:53.252Z,479.00
2024-04-23T04:26:53.217Z,479.00
2024-04-23T04:27:53.230Z,477.00
2024-04-23T04:28:53.262Z,478.00
2024-04-23T04:29:53.269Z,477.00
2024-04-23T04:30:53.303Z,477.00
2024-04-23T04:31:53.330Z,475.00
2024-04-23T04:32:53.403Z,473.00
2024-04-23T04:33:53.895Z,472.00
2024-04-23T04:34:53.376Z,472.00
2024-04-23T04:35:53.392Z,470.00
2024-04-23T04:36:53.402Z,472.00
2024-04-23T04:37:53.454Z,472.00
2024-04-23T04:38:53.442Z,473.00
2024-04-23T04:39:53.461Z,476.00
2024-04-23T04:40:53.487Z,478.00
2024-04-23T04:41:53.493Z,480.00
2024-04-23T04:42:53.499Z,478.00
2024-04-23T04:43:53.558Z,477.00
2024-04-23T04:44:53.560Z,477.00
2024-04-23T04:45:53.622Z,474.00
2024-04-23T04:46:53.702Z,474.00
2024-04-23T04:47:53.865Z,470.00
2024-04-23T04:49:01.312Z,478.00
2024-04-23T04:50:01.343Z,476.00
2024-04-23T04:51:01.251Z,473.00
2024-04-23T04:52:01.271Z,473.00
2024-04-23T04:53:01.352Z,470.00
2024-04-23T04:54:02.254Z,472.00
2024-04-23T04:55:01.250Z,472.00
2024-04-23T04:56:01.382Z,473.00
2024-04-23T04:57:01.229Z,474.00
2024-04-23T04:58:01.213Z,475.00
2024-04-23T04:59:01.304Z,473.00
2024-04-23T05:00:01.217Z,473.00
2024-04-23T05:01:01.253Z,474.00
2024-04-23T05:02:01.262Z,476.00
2024-04-23T05:03:01.221Z,476.00
2024-04-23T05:04:01.311Z,478.00
2024-04-23T05:05:01.270Z,476.00
2024-04-23T05:06:01.192Z,474.00
2024-04-23T05:07:01.196Z,474.00
2024-04-23T05:08:01.228Z,474.00
2024-04-23T05:09:01.238Z,474.00
2024-04-23T05:10:01.314Z,474.00
2024-04-23T05:11:01.446Z,477.00
2024-04-23T05:12:01.452Z,476.00
2024-04-23T05:13:01.458Z,478.00
2024-04-23T05:14:01.616Z,480.00
2024-04-23T05:15:01.607Z,480.00
2024-04-23T05:16:01.650Z,477.00
2024-04-23T05:17:01.853Z,474.00
2024-04-23T05:18:02.003Z,470.00
2024-04-23T05:19:01.810Z,470.00
2024-04-23T05:20:02.034Z,468.00
2024-04-23T05:21:01.864Z,468.00
2024-04-23T05:22:01.968Z,468.00
2024-04-23T05:23:01.990Z,466.00
2024-04-23T05:24:01.865Z,466.00
2024-04-23T05:25:01.845Z,468.00
2024-04-23T05:26:01.955Z,469.00
2024-04-23T05:27:01.822Z,470.00
2024-04-23T05:28:01.817Z,469.00
2024-04-23T05:29:02.023Z,470.00
2024-04-23T05:30:01.881Z,469.00
2024-04-23T05:31:01.944Z,466.00
2024-04-23T05:32:02.113Z,465.00
2024-04-23T05:33:02.173Z,466.00
2024-04-23T05:34:02.114Z,467.00
2024-04-23T05:35:02.192Z,468.00
2024-04-23T05:36:02.205Z,469.00
2024-04-23T05:37:02.096Z,470.00
2024-04-23T05:38:02.250Z,471.00
2024-04-23T05:39:02.081Z,467.00
2024-04-23T05:40:02.091Z,469.00
2024-04-23T05:41:02.116Z,472.00
2024-04-23T05:42:02.092Z,471.00
2024-04-23T05:43:02.062Z,472.00
2024-04-23T05:44:02.171Z,473.00
2024-04-23T05:45:02.085Z,473.00
2024-04-23T05:46:02.076Z,472.00
2024-04-23T05:47:02.192Z,472.00
2024-04-23T05:48:02.178Z,469.00
2024-04-23T05:49:02.163Z,470.00
2024-04-23T05:50:02.348Z,470.00
2024-04-23T05:51:02.220Z,469.00
2024-04-23T05:52:09.523Z,469.00
2024-04-23T05:53:03.472Z,471.00
2024-04-23T05:54:02.210Z,473.00
2024-04-23T05:55:02.302Z,475.00
2024-04-23T05:56:02.342Z,479.00
2024-04-23T05:57:02.172Z,478.00
2024-04-23T05:58:02.189Z,474.00
2024-04-23T05:59:02.192Z,472.00
2024-04-23T06:00:02.182Z,471.00
2024-04-23T06:01:02.211Z,470.00
2024-04-23T06:02:02.332Z,469.00
2024-04-23T06:03:02.175Z,471.00
2024-04-23T06:04:02.168Z,470.00
2024-04-23T06:05:02.200Z,471.00
2024-04-23T06:06:02.142Z,471.00
2024-04-23T06:07:02.115Z,473.00
2024-04-23T06:08:02.216Z,474.00
2024-04-23T06:09:02.113Z,480.00
2024-04-23T06:10:02.086Z,480.00
2024-04-23T06:11:02.282Z,481.00
2024-04-23T06:12:02.196Z,484.00
2024-04-23T06:13:02.150Z,483.00
2024-04-23T06:14:02.284Z,483.00
2024-04-23T06:15:02.336Z,486.00
2024-04-23T06:16:02.930Z,488.00
2024-04-23T06:17:02.461Z,487.00
2024-04-23T06:18:02.544Z,488.00
2024-04-23T06:19:02.583Z,487.00
2024-04-23T06:20:03.519Z,486.00
2024-04-23T06:21:02.507Z,488.00
2024-04-23T06:22:02.505Z,487.00
2024-04-23T06:23:02.574Z,490.00
2024-04-23T06:24:02.482Z,492.00
2024-04-23T06:25:02.474Z,494.00
2024-04-23T06:26:02.566Z,492.00
2024-04-23T06:27:02.427Z,492.00
2024-04-23T06:28:02.436Z,491.00
2024-04-23T06:29:02.504Z,490.00
2024-04-23T06:30:02.392Z,493.00
2024-04-23T06:31:02.503Z,493.00
2024-04-23T06:32:02.540Z,492.00
2024-04-23T06:33:02.730Z,494.00
2024-04-23T06:34:02.424Z,495.00
2024-04-23T06:35:02.622Z,495.00
2024-04-23T06:36:02.400Z,494.00
2024-04-23T06:37:02.503Z,494.00
2024-04-23T06:38:02.504Z,496.00
2024-04-23T06:39:02.394Z,496.00
2024-04-23T06:40:02.720Z,496.00
2024-04-23T06:41:02.436Z,498.00
2024-04-23T06:42:02.306Z,498.00
2024-04-23T06:43:02.361Z,497.00
2024-04-23T06:44:02.515Z,497.00
2024-04-23T06:45:02.375Z,495.00
2024-04-23T06:46:02.413Z,491.00
2024-04-23T06:47:02.450Z,491.00
2024-04-23T06:48:02.532Z,490.00
2024-04-23T06:49:02.495Z,488.00
2024-04-23T06:50:02.678Z,489.00
2024-04-23T06:51:02.615Z,489.00
2024-04-23T06:52:02.617Z,489.00
2024-04-23T06:53:04.319Z,488.00
2024-04-23T06:54:02.639Z,486.00
2024-04-23T06:55:02.839Z,484.00
2024-04-23T06:56:02.636Z,485.00
2024-04-23T06:57:02.805Z,487.00
2024-04-23T06:58:02.584Z,485.00
2024-04-23T06:59:02.713Z,484.00
2024-04-23T07:00:02.633Z,485.00
2024-04-23T07:01:02.642Z,484.00
2024-04-23T07:02:02.712Z,482.00
2024-04-23T07:03:02.583Z,481.00
2024-04-23T07:04:02.572Z,482.00
2024-04-23T07:05:02.682Z,483.00
2024-04-23T07:06:02.516Z,483.00
2024-04-23T07:07:02.494Z,483.00
2024-04-23T07:08:02.584Z,484.00
2024-04-23T07:09:02.487Z,483.00
2024-04-23T07:10:02.497Z,483.00
2024-04-23T07:11:02.572Z,483.00
2024-04-23T07:12:02.484Z,484.00
2024-04-23T07:13:02.460Z,486.00
2024-04-23T07:14:02.570Z,485.00
2024-04-23T07:15:02.445Z,483.00
2024-04-23T07:16:02.424Z,481.00
2024-04-23T07:17:02.507Z,478.00
2024-04-23T07:18:02.627Z,478.00
2024-04-23T07:19:02.841Z,478.00
2024-04-23T07:20:02.576Z,478.00
2024-04-23T07:21:02.391Z,478.00
2024-04-23T07:22:02.399Z,481.00
2024-04-23T07:23:03.064Z,484.00
2024-04-23T07:24:02.377Z,487.00
2024-04-23T07:25:02.385Z,486.00
2024-04-23T07:26:02.451Z,485.00
2024-04-23T07:27:02.425Z,487.00
2024-04-23T07:28:02.483Z,486.00
2024-04-23T07:29:02.590Z,484.00
2024-04-23T07:30:02.577Z,483.00
2024-04-23T07:31:02.667Z,482.00
2024-04-23T07:32:02.857Z,481.00
2024-04-23T07:33:02.858Z,480.00
2024-04-23T07:34:02.746Z,483.00
2024-04-23T07:35:02.994Z,484.00
2024-04-23T07:36:02.940Z,482.00
2024-04-23T07:37:02.960Z,480.00
2024-04-23T07:38:02.930Z,483.00
2024-04-23T07:39:02.988Z,481.00
2024-04-23T07:40:03.022Z,480.00
2024-04-23T07:41:03.283Z,479.00
2024-04-23T07:42:03.128Z,480.00
2024-04-23T07:43:03.200Z,481.00
2024-04-23T07:44:03.305Z,480.00
2024-04-23T07:45:03.272Z,480.00
2024-04-23T07:46:03.345Z,479.00
2024-04-23T07:47:03.423Z,480.00
2024-04-23T07:48:03.714Z,480.00
2024-04-23T07:49:03.476Z,481.00
2024-04-23T07:50:03.670Z,483.00
2024-04-23T07:51:03.600Z,482.00
2024-04-23T07:52:03.635Z,482.00
2024-04-23T07:53:03.771Z,480.00
2024-04-23T07:54:03.741Z,477.00
2024-04-23T07:55:03.780Z,478.00
2024-04-23T07:56:04.099Z,480.00
2024-04-23T07:57:03.889Z,481.00
2024-04-23T07:58:04.012Z,484.00
2024-04-23T07:59:04.097Z,486.00
2024-04-23T08:00:04.018Z,489.00
2024-04-23T08:01:04.107Z,489.00
2024-04-23T08:02:04.256Z,488.00
2024-04-23T08:03:04.217Z,487.00
2024-04-23T08:04:04.359Z,484.00
2024-04-23T08:05:04.411Z,483.00
2024-04-23T08:06:04.339Z,482.00
2024-04-23T08:07:04.360Z,485.00
2024-04-23T08:08:04.504Z,485.00
2024-04-23T08:09:04.426Z,483.00
2024-04-23T08:10:04.602Z,481.00
2024-04-23T08:11:04.864Z,482.00
2024-04-23T08:12:04.554Z,480.00
2024-04-23T08:13:04.626Z,480.00
2024-04-23T08:14:04.730Z,480.00
2024-04-23T08:15:04.757Z,480.00
2024-04-23T08:16:04.801Z,480.00
2024-04-23T08:17:04.989Z,483.00
2024-04-23T08:18:04.977Z,482.00
2024-04-23T08:19:04.919Z,481.00
2024-04-23T08:20:04.964Z,481.00
2024-04-23T08:21:05.021Z,480.00
2024-04-23T08:22:07.990Z,481.00
2024-04-23T08:23:05.091Z,480.00
2024-04-23T08:24:05.025Z,480.00
2024-04-23T08:25:05.012Z,481.00
2024-04-23T08:26:05.002Z,484.00
2024-04-23T08:27:04.973Z,482.00
2024-04-23T08:28:04.962Z,482.00
2024-04-23T08:29:05.159Z,481.00
2024-04-23T08:30:04.961Z,482.00
2024-04-23T08:31:04.951Z,484.00
2024-04-23T08:32:05.006Z,483.00
2024-04-23T08:33:05.011Z,485.00
2024-04-23T08:34:04.903Z,486.00
2024-04-23T08:35:04.977Z,486.00
2024-04-23T08:36:04.962Z,488.00
2024-04-23T08:37:04.948Z,487.00
2024-04-23T08:38:05.111Z,488.00
2024-04-23T08:39:05.070Z,488.00
2024-04-23T08:40:05.327Z,487.00
2024-04-23T08:41:05.345Z,487.00
2024-04-23T08:42:05.200Z,491.00
2024-04-23T08:43:07.674Z,493.00
2024-04-23T08:44:05.321Z,497.00
2024-04-23T08:45:05.241Z,499.00
2024-04-23T08:46:05.230Z,503.00
2024-04-23T08:47:05.312Z,509.00
2024-04-23T08:48:05.302Z,509.00
2024-04-23T08:49:05.344Z,509.00
2024-04-23T08:50:05.186Z,509.00
2024-04-23T08:51:05.180Z,512.00
2024-04-23T08:52:05.139Z,515.00
2024-04-23T08:53:05.212Z,515.00
2024-04-23T08:54:05.102Z,517.00
2024-04-23T08:55:05.183Z,518.00
2024-04-23T08:56:05.268Z,516.00
2024-04-23T08:57:05.080Z,515.00
2024-04-23T08:58:05.067Z,517.00
2024-04-23T08:59:05.073Z,522.00
2024-04-23T09:00:06.906Z,523.00
2024-04-23T09:01:05.142Z,522.00
2024-04-23T09:02:05.083Z,522.00
2024-04-23T09:03:05.008Z,523.00
2024-04-23T09:04:05.070Z,524.00
2024-04-23T09:05:05.038Z,524.00
2024-04-23T09:06:05.069Z,525.00
2024-04-23T09:07:04.994Z,526.00
2024-04-23T09:08:05.143Z,523.00
2024-04-23T09:09:05.104Z,524.00
2024-04-23T09:10:05.229Z,522.00
2024-04-23T09:11:05.234Z,520.00
2024-04-23T09:12:05.228Z,524.00
2024-04-23T09:13:05.217Z,523.00
2024-04-23T09:14:05.329Z,525.00
2024-04-23T09:15:05.340Z,527.00
2024-04-23T09:16:05.343Z,526.00
2024-04-23T09:17:05.379Z,523.00
2024-04-23T09:18:05.342Z,519.00
2024-04-23T09:19:05.232Z,514.00
2024-04-23T09:20:05.297Z,511.00
2024-04-23T09:21:05.215Z,510.00
2024-04-23T09:22:08.042Z,512.00
2024-04-23T09:23:05.283Z,514.00
2024-04-23T09:24:05.187Z,516.00
2024-04-23T09:25:05.296Z,519.00
2024-04-23T09:26:05.320Z,520.00
2024-04-23T09:27:05.126Z,519.00
2024-04-23T09:28:06.042Z,519.00
2024-04-23T09:29:05.134Z,518.00
2024-04-23T09:30:05.072Z,519.00
2024-04-23T09:31:05.126Z,518.00
2024-04-23T09:32:05.267Z,516.00
2024-04-23T09:33:07.449Z,514.00
2024-04-23T09:34:05.041Z,513.00
2024-04-23T09:35:05.192Z,513.00
2024-04-23T09:36:05.529Z,512.00
2024-04-23T09:37:04.989Z,512.00
2024-04-23T09:38:05.067Z,513.00
2024-04-23T09:39:04.980Z,516.00
2024-04-23T09:40:04.952Z,516.00
2024-04-23T09:41:05.119Z,514.00
2024-04-23T09:42:04.930Z,514.00
2024-04-23T09:43:04.921Z,515.00
2024-04-23T09:44:04.998Z,519.00
2024-04-23T09:45:04.995Z,519.00
2024-04-23T09:46:06.564Z,521.00
2024-04-23T09:47:04.930Z,522.00
2024-04-23T09:48:04.863Z,522.00
2024-04-23T09:49:04.796Z,521.00
2024-04-23T09:50:04.806Z,525.00
2024-04-23T09:51:04.925Z,534.00
2024-04-23T09:52:05.770Z,537.00
2024-04-23T09:53:04.839Z,541.00
2024-04-23T09:54:04.721Z,544.00
2024-04-23T09:55:04.728Z,551.00
2024-04-23T09:56:04.778Z,553.00
2024-04-23T09:57:04.659Z,559.00
2024-04-23T09:58:04.702Z,565.00
2024-04-23T09:59:04.817Z,569.00
2024-04-23T10:00:04.631Z,574.00
2024-04-23T10:01:04.673Z,581.00
2024-04-23T10:02:05.570Z,585.00
2024-04-23T10:03:04.637Z,589.00
2024-04-23T10:04:04.689Z,592.00
2024-04-23T10:05:04.931Z,595.00
2024-04-23T10:06:04.504Z,600.00
2024-04-23T10:07:04.464Z,602.00
2024-04-23T10:08:04.533Z,609.00
2024-04-23T10:09:04.438Z,612.00
2024-04-23T10:10:04.403Z,615.00
2024-04-23T10:11:04.611Z,620.00
2024-04-23T10:12:04.401Z,623.00
2024-04-23T10:13:04.406Z,626.00
2024-04-23T10:14:05.064Z,629.00
2024-04-23T10:15:04.625Z,634.00
2024-04-23T10:16:04.606Z,639.00
2024-04-23T10:17:04.733Z,644.00
2024-04-23T10:18:04.746Z,647.00
2024-04-23T10:19:04.621Z,647.00
2024-04-23T10:20:04.701Z,651.00
2024-04-23T10:21:04.589Z,655.00
2024-04-23T10:22:04.579Z,658.00
2024-04-23T10:23:04.618Z,662.00
2024-04-23T10:24:04.492Z,664.00
2024-04-23T10:25:04.482Z,666.00
2024-04-23T10:26:04.518Z,668.00
2024-04-23T10:27:04.419Z,670.00
2024-04-23T10:28:04.429Z,676.00
2024-04-23T10:29:04.383Z,677.00
2024-04-23T10:30:04.353Z,679.00
2024-04-23T10:31:04.331Z,683.00
2024-04-23T10:32:04.398Z,688.00
2024-04-23T10:33:04.350Z,689.00
2024-04-23T10:34:05.502Z,694.00
2024-04-23T10:35:04.271Z,696.00
2024-04-23T10:36:04.167Z,696.00
2024-04-23T10:37:04.136Z,693.00
2024-04-23T10:38:04.158Z,687.00
2024-04-23T10:39:04.131Z,681.00
2024-04-23T10:40:04.101Z,681.00
2024-04-23T10:41:04.084Z,682.00
2024-04-23T10:42:04.534Z,681.00
2024-04-23T10:43:04.000Z,681.00
2024-04-23T10:44:04.016Z,678.00
2024-04-23T10:45:03.922Z,677.00
2024-04-23T10:46:03.955Z,673.00
2024-04-23T10:47:03.982Z,669.00
2024-04-23T10:48:03.966Z,670.00
2024-04-23T10:49:03.916Z,668.00
2024-04-23T10:50:04.019Z,666.00
2024-04-23T10:51:04.016Z,664.00
2024-04-23T10:52:04.137Z,663.00
2024-04-23T10:53:04.136Z,662.00
2024-04-23T10:54:04.105Z,660.00
2024-04-23T10:55:04.198Z,655.00
2024-04-23T10:56:04.218Z,653.00
2024-04-23T10:57:04.217Z,651.00
2024-04-23T10:58:04.202Z,649.00
2024-04-23T10:59:05.434Z,647.00
2024-04-23T11:00:04.163Z,644.00
2024-04-23T11:01:04.401Z,639.00
2024-04-23T11:02:04.344Z,633.00
2024-04-23T11:03:04.121Z,631.00
2024-04-23T11:04:04.121Z,630.00
2024-04-23T11:05:04.320Z,627.00
2024-04-23T11:06:04.254Z,626.00
2024-04-23T11:07:04.065Z,626.00
2024-04-23T11:08:04.090Z,623.00
2024-04-23T11:09:04.062Z,619.00
2024-04-23T11:10:04.107Z,618.00
2024-04-23T11:11:04.343Z,615.00
2024-04-23T11:12:04.204Z,618.00
2024-04-23T11:13:04.213Z,620.00
2024-04-23T11:14:04.308Z,620.00
2024-04-23T11:15:04.225Z,619.00
2024-04-23T11:16:04.201Z,619.00
2024-04-23T11:17:04.253Z,617.00
2024-04-23T11:18:04.362Z,614.00
2024-04-23T11:19:04.159Z,613.00
2024-04-23T11:20:04.082Z,610.00
2024-04-23T11:21:04.062Z,606.00
2024-04-23T11:22:03.995Z,606.00
2024-04-23T11:23:04.009Z,607.00
2024-04-23T11:24:03.951Z,604.00
2024-04-23T11:25:03.945Z,602.00
2024-04-23T11:26:04.003Z,599.00
2024-04-23T11:27:03.871Z,599.00
2024-04-23T11:28:03.834Z,598.00
2024-04-23T11:29:03.864Z,598.00
2024-04-23T11:30:03.772Z,597.00
2024-04-23T11:31:03.716Z,597.00
2024-04-23T11:32:03.748Z,595.00
2024-04-23T11:33:03.697Z,591.00
2024-04-23T11:34:03.592Z,586.00
2024-04-23T11:35:03.678Z,582.00
2024-04-23T11:36:03.774Z,580.00
2024-04-23T11:37:03.507Z,579.00
2024-04-23T11:38:03.574Z,576.00
2024-04-23T11:39:03.458Z,574.00
2024-04-23T11:40:03.529Z,574.00
2024-04-23T11:41:03.552Z,573.00
2024-04-23T11:42:03.567Z,573.00
2024-04-23T11:43:03.555Z,578.00
2024-04-23T11:44:03.628Z,574.00
2024-04-23T11:45:03.632Z,572.00
2024-04-23T11:46:04.358Z,570.00
2024-04-23T11:47:03.771Z,571.00
2024-04-23T11:48:03.911Z,572.00
2024-04-23T11:49:03.744Z,569.00
2024-04-23T11:50:04.462Z,568.00
2024-04-23T11:51:03.880Z,566.00
2024-04-23T11:52:05.002Z,560.00
2024-04-23T11:53:03.918Z,558.00
2024-04-23T11:54:03.871Z,557.00
2024-04-23T11:55:03.887Z,557.00
2024-04-23T11:56:03.949Z,560.00
2024-04-23T11:57:04.013Z,559.00
2024-04-23T11:58:03.919Z,559.00
2024-04-23T11:59:04.008Z,561.00
2024-04-23T12:00:03.852Z,561.00
2024-04-23T12:01:03.853Z,558.00
2024-04-23T12:02:03.823Z,558.00
2024-04-23T12:03:03.753Z,556.00
2024-04-23T12:04:03.736Z,556.00
2024-04-23T12:05:03.887Z,554.00
2024-04-23T12:06:04.712Z,554.00
2024-04-23T12:07:03.619Z,557.00
2024-04-23T12:08:04.619Z,554.00
2024-04-23T12:09:03.654Z,554.00
2024-04-23T12:10:03.687Z,553.00
2024-04-23T12:11:03.758Z,554.00
2024-04-23T12:12:03.743Z,554.00
2024-04-23T12:13:03.773Z,555.00
2024-04-23T12:14:03.845Z,555.00
2024-04-23T12:15:03.819Z,553.00
2024-04-23T12:16:03.799Z,554.00
2024-04-23T12:17:03.842Z,557.00
2024-04-23T12:18:03.934Z,558.00
2024-04-23T12:19:03.845Z,560.00
2024-04-23T12:20:03.957Z,560.00
2024-04-23T12:21:03.893Z,558.00
2024-04-23T12:22:03.932Z,556.00
2024-04-23T12:23:04.017Z,555.00
2024-04-23T12:24:03.931Z,555.00
2024-04-23T12:25:04.014Z,555.00
2024-04-23T12:26:03.972Z,553.00
2024-04-23T12:27:03.993Z,553.00
2024-04-23T12:28:03.998Z,552.00
2024-04-23T12:29:04.046Z,555.00
2024-04-23T12:30:04.051Z,555.00